sensor_id;sensor_type;location;lat;lon;timestamp;P1;durP1;ratioP1;P2;durP2;ratioP2
62633;SDS011;48704;50.534;6.442;2022-07-15T00:01:05;4.90;;;2.30;;
62633;SDS011;48704;50.534;6.442;2022-07-15T00:03:31;3.70;;;2.15;;
62633;SDS011;48704;50.534;6.442;2022-07-15T00:05:57;5.00;;;2.13;;
62633;SDS011;48704;50.534;6.442;2022-07-15T00:08:22;6.22;;;2.45;;
62633;SDS011;48704;50.534;6.442;2022-07-15T00:10:48;5.68;;;2.58;;
62633;SDS011;48704;50.534;6.442;2022-07-15T00:13:14;6.80;;;3.15;;
62633;SDS011;48704;50.534;6.442;2022-07-15T00:15:39;6.30;;;2.78;;
62633;SDS011;48704;50.534;6.442;2022-07-15T00:18:05;8.43;;;2.70;;
62633;SDS011;48704;50.534;6.442;2022-07-15T00:20:30;5.57;;;2.75;;
62633;SDS011;48704;50.534;6.442;2022-07-15T00:23:00;6.78;;;3.03;;
62633;SDS011;48704;50.534;6.442;2022-07-15T00:25:27;9.15;;;4.00;;
62633;SDS011;48704;50.534;6.442;2022-07-15T00:28:02;6.38;;;3.30;;
62633;SDS011;48704;50.534;6.442;2022-07-15T00:30:30;11.23;;;4.30;;
62633;SDS011;48704;50.534;6.442;2022-07-15T00:32:58;7.95;;;3.60;;
62633;SDS011;48704;50.534;6.442;2022-07-15T00:35:25;9.57;;;3.75;;
62633;SDS011;48704;50.534;6.442;2022-07-15T00:37:51;7.95;;;3.40;;
62633;SDS011;48704;50.534;6.442;2022-07-15T00:40:16;10.43;;;3.95;;
62633;SDS011;48704;50.534;6.442;2022-07-15T00:42:42;10.20;;;4.40;;
62633;SDS011;48704;50.534;6.442;2022-07-15T00:45:14;7.75;;;4.13;;
62633;SDS011;48704;50.534;6.442;2022-07-15T00:47:43;8.10;;;4.15;;
62633;SDS011;48704;50.534;6.442;2022-07-15T00:50:12;7.75;;;3.85;;
62633;SDS011;48704;50.534;6.442;2022-07-15T00:52:40;9.82;;;4.32;;
62633;SDS011;48704;50.534;6.442;2022-07-15T00:55:09;14.65;;;5.95;;
62633;SDS011;48704;50.534;6.442;2022-07-15T00:57:36;10.02;;;4.65;;
62633;SDS011;48704;50.534;6.442;2022-07-15T01:00:04;12.60;;;5.05;;
62633;SDS011;48704;50.534;6.442;2022-07-15T01:02:31;9.50;;;4.18;;
62633;SDS011;48704;50.534;6.442;2022-07-15T01:04:58;9.23;;;5.00;;
62633;SDS011;48704;50.534;6.442;2022-07-15T01:07:25;12.73;;;5.40;;
62633;SDS011;48704;50.534;6.442;2022-07-15T01:09:51;7.80;;;4.47;;
62633;SDS011;48704;50.534;6.442;2022-07-15T01:12:16;8.63;;;4.45;;
62633;SDS011;48704;50.534;6.442;2022-07-15T01:14:42;12.20;;;4.78;;
62633;SDS011;48704;50.534;6.442;2022-07-15T01:17:11;8.38;;;3.83;;
62633;SDS011;48704;50.534;6.442;2022-07-15T01:19:36;10.60;;;4.50;;
62633;SDS011;48704;50.534;6.442;2022-07-15T01:22:03;9.35;;;4.20;;
62633;SDS011;48704;50.534;6.442;2022-07-15T01:24:30;9.65;;;4.65;;
62633;SDS011;48704;50.534;6.442;2022-07-15T01:26:56;12.55;;;5.22;;
62633;SDS011;48704;50.534;6.442;2022-07-15T01:29:21;11.20;;;5.40;;
62633;SDS011;48704;50.534;6.442;2022-07-15T01:31:47;7.63;;;4.10;;
62633;SDS011;48704;50.534;6.442;2022-07-15T01:34:13;10.55;;;4.60;;
62633;SDS011;48704;50.534;6.442;2022-07-15T01:36:38;9.45;;;4.80;;
62633;SDS011;48704;50.534;6.442;2022-07-15T01:39:04;9.50;;;4.70;;
62633;SDS011;48704;50.534;6.442;2022-07-15T01:41:29;9.52;;;4.55;;
62633;SDS011;48704;50.534;6.442;2022-07-15T01:43:55;9.25;;;5.15;;
62633;SDS011;48704;50.534;6.442;2022-07-15T01:46:21;8.13;;;5.43;;
62633;SDS011;48704;50.534;6.442;2022-07-15T01:48:46;12.85;;;5.50;;
62633;SDS011;48704;50.534;6.442;2022-07-15T01:51:30;22.50;;;8.80;;
62633;SDS011;48704;50.534;6.442;2022-07-15T01:53:56;9.75;;;5.57;;
62633;SDS011;48704;50.534;6.442;2022-07-15T01:56:21;9.23;;;5.32;;
62633;SDS011;48704;50.534;6.442;2022-07-15T01:58:48;9.50;;;5.40;;
62633;SDS011;48704;50.534;6.442;2022-07-15T02:01:14;11.55;;;6.47;;
62633;SDS011;48704;50.534;6.442;2022-07-15T02:03:43;12.57;;;5.13;;
62633;SDS011;48704;50.534;6.442;2022-07-15T02:06:09;9.80;;;5.63;;
62633;SDS011;48704;50.534;6.442;2022-07-15T02:08:35;13.45;;;5.53;;
62633;SDS011;48704;50.534;6.442;2022-07-15T02:11:01;12.98;;;5.47;;
62633;SDS011;48704;50.534;6.442;2022-07-15T02:13:27;14.23;;;5.78;;
62633;SDS011;48704;50.534;6.442;2022-07-15T02:15:53;13.30;;;5.53;;
62633;SDS011;48704;50.534;6.442;2022-07-15T02:18:18;11.30;;;5.05;;
62633;SDS011;48704;50.534;6.442;2022-07-15T02:20:44;8.70;;;4.93;;
62633;SDS011;48704;50.534;6.442;2022-07-15T02:23:11;9.70;;;4.47;;
62633;SDS011;48704;50.534;6.442;2022-07-15T02:25:37;13.93;;;5.75;;
62633;SDS011;48704;50.534;6.442;2022-07-15T02:28:04;7.97;;;4.95;;
62633;SDS011;48704;50.534;6.442;2022-07-15T02:30:36;17.67;;;5.78;;
62633;SDS011;48704;50.534;6.442;2022-07-15T02:33:04;11.55;;;6.38;;
62633;SDS011;48704;50.534;6.442;2022-07-15T02:35:31;14.85;;;6.43;;
62633;SDS011;48704;50.534;6.442;2022-07-15T02:37:58;12.40;;;6.20;;
62633;SDS011;48704;50.534;6.442;2022-07-15T02:40:24;11.60;;;6.45;;
62633;SDS011;48704;50.534;6.442;2022-07-15T02:42:51;10.80;;;6.57;;
62633;SDS011;48704;50.534;6.442;2022-07-15T02:45:21;14.05;;;6.55;;
62633;SDS011;48704;50.534;6.442;2022-07-15T02:47:49;11.38;;;6.25;;
62633;SDS011;48704;50.534;6.442;2022-07-15T02:50:16;10.98;;;6.35;;
62633;SDS011;48704;50.534;6.442;2022-07-15T02:52:42;12.95;;;7.70;;
62633;SDS011;48704;50.534;6.442;2022-07-15T02:55:09;10.90;;;6.07;;
62633;SDS011;48704;50.534;6.442;2022-07-15T02:57:35;13.40;;;5.97;;
62633;SDS011;48704;50.534;6.442;2022-07-15T03:00:02;11.93;;;5.43;;
62633;SDS011;48704;50.534;6.442;2022-07-15T03:02:30;12.55;;;6.28;;
62633;SDS011;48704;50.534;6.442;2022-07-15T03:04:56;9.20;;;5.70;;
62633;SDS011;48704;50.534;6.442;2022-07-15T03:07:22;8.50;;;5.47;;
62633;SDS011;48704;50.534;6.442;2022-07-15T03:09:48;11.82;;;5.85;;
62633;SDS011;48704;50.534;6.442;2022-07-15T03:12:13;10.88;;;5.70;;
62633;SDS011;48704;50.534;6.442;2022-07-15T03:14:39;13.95;;;5.65;;
62633;SDS011;48704;50.534;6.442;2022-07-15T03:17:05;13.27;;;6.10;;
62633;SDS011;48704;50.534;6.442;2022-07-15T03:19:31;11.55;;;5.85;;
62633;SDS011;48704;50.534;6.442;2022-07-15T03:21:56;13.15;;;5.82;;
62633;SDS011;48704;50.534;6.442;2022-07-15T03:24:22;13.70;;;6.10;;
62633;SDS011;48704;50.534;6.442;2022-07-15T03:26:48;11.32;;;6.03;;
62633;SDS011;48704;50.534;6.442;2022-07-15T03:29:13;15.00;;;5.78;;
62633;SDS011;48704;50.534;6.442;2022-07-15T03:31:41;10.65;;;6.03;;
62633;SDS011;48704;50.534;6.442;2022-07-15T03:34:09;10.95;;;5.65;;
62633;SDS011;48704;50.534;6.442;2022-07-15T03:36:36;10.05;;;6.47;;
62633;SDS011;48704;50.534;6.442;2022-07-15T03:39:03;12.15;;;5.93;;
62633;SDS011;48704;50.534;6.442;2022-07-15T03:41:29;9.68;;;5.53;;
62633;SDS011;48704;50.534;6.442;2022-07-15T03:43:55;10.77;;;6.05;;
62633;SDS011;48704;50.534;6.442;2022-07-15T03:46:21;10.60;;;5.25;;
62633;SDS011;48704;50.534;6.442;2022-07-15T03:48:46;13.48;;;5.82;;
62633;SDS011;48704;50.534;6.442;2022-07-15T03:51:12;14.93;;;5.32;;
62633;SDS011;48704;50.534;6.442;2022-07-15T03:53:38;9.88;;;5.75;;
62633;SDS011;48704;50.534;6.442;2022-07-15T03:56:04;9.60;;;4.28;;
62633;SDS011;48704;50.534;6.442;2022-07-15T03:58:29;8.25;;;4.50;;
62633;SDS011;48704;50.534;6.442;2022-07-15T04:00:55;11.55;;;4.45;;
62633;SDS011;48704;50.534;6.442;2022-07-15T04:03:20;10.73;;;4.75;;
62633;SDS011;48704;50.534;6.442;2022-07-15T04:05:46;10.63;;;4.63;;
62633;SDS011;48704;50.534;6.442;2022-07-15T04:08:12;7.32;;;4.47;;
62633;SDS011;48704;50.534;6.442;2022-07-15T04:10:37;10.10;;;4.25;;
62633;SDS011;48704;50.534;6.442;2022-07-15T04:13:03;9.95;;;4.70;;
62633;SDS011;48704;50.534;6.442;2022-07-15T04:15:28;7.38;;;4.43;;
62633;SDS011;48704;50.534;6.442;2022-07-15T04:17:55;7.60;;;4.13;;
62633;SDS011;48704;50.534;6.442;2022-07-15T04:20:21;8.80;;;4.15;;
62633;SDS011;48704;50.534;6.442;2022-07-15T04:22:47;18.30;;;4.82;;
62633;SDS011;48704;50.534;6.442;2022-07-15T04:25:17;12.52;;;3.85;;
62633;SDS011;48704;50.534;6.442;2022-07-15T04:27:44;8.10;;;4.63;;
62633;SDS011;48704;50.534;6.442;2022-07-15T04:30:10;8.45;;;3.88;;
62633;SDS011;48704;50.534;6.442;2022-07-15T04:32:37;14.90;;;5.10;;
62633;SDS011;48704;50.534;6.442;2022-07-15T04:35:03;8.23;;;4.07;;
62633;SDS011;48704;50.534;6.442;2022-07-15T04:37:29;8.55;;;4.55;;
62633;SDS011;48704;50.534;6.442;2022-07-15T04:39:55;11.75;;;5.25;;
62633;SDS011;48704;50.534;6.442;2022-07-15T04:42:21;8.55;;;4.25;;
62633;SDS011;48704;50.534;6.442;2022-07-15T04:44:48;12.02;;;5.30;;
62633;SDS011;48704;50.534;6.442;2022-07-15T04:47:14;7.97;;;5.05;;
62633;SDS011;48704;50.534;6.442;2022-07-15T04:49:41;10.57;;;5.22;;
62633;SDS011;48704;50.534;6.442;2022-07-15T04:52:25;14.15;;;6.32;;
62633;SDS011;48704;50.534;6.442;2022-07-15T04:54:51;16.90;;;6.70;;
62633;SDS011;48704;50.534;6.442;2022-07-15T04:57:17;13.77;;;6.80;;
62633;SDS011;48704;50.534;6.442;2022-07-15T04:59:43;12.82;;;7.28;;
62633;SDS011;48704;50.534;6.442;2022-07-15T05:02:09;14.65;;;7.43;;
62633;SDS011;48704;50.534;6.442;2022-07-15T05:04:35;20.23;;;8.77;;
62633;SDS011;48704;50.534;6.442;2022-07-15T05:07:00;21.50;;;9.25;;
62633;SDS011;48704;50.534;6.442;2022-07-15T05:09:26;21.38;;;10.43;;
62633;SDS011;48704;50.534;6.442;2022-07-15T05:11:52;19.70;;;10.23;;
62633;SDS011;48704;50.534;6.442;2022-07-15T05:14:17;17.88;;;10.40;;
62633;SDS011;48704;50.534;6.442;2022-07-15T05:16:43;20.52;;;10.02;;
62633;SDS011;48704;50.534;6.442;2022-07-15T05:19:09;19.70;;;9.18;;
62633;SDS011;48704;50.534;6.442;2022-07-15T05:21:34;19.00;;;10.15;;
62633;SDS011;48704;50.534;6.442;2022-07-15T05:24:00;19.05;;;9.57;;
62633;SDS011;48704;50.534;6.442;2022-07-15T05:26:26;19.15;;;10.43;;
62633;SDS011;48704;50.534;6.442;2022-07-15T05:28:51;18.75;;;9.35;;
62633;SDS011;48704;50.534;6.442;2022-07-15T05:31:17;20.75;;;9.05;;
62633;SDS011;48704;50.534;6.442;2022-07-15T05:33:43;19.33;;;8.73;;
62633;SDS011;48704;50.534;6.442;2022-07-15T05:36:12;15.73;;;8.85;;
62633;SDS011;48704;50.534;6.442;2022-07-15T05:38:39;20.55;;;9.48;;
62633;SDS011;48704;50.534;6.442;2022-07-15T05:41:05;17.83;;;8.85;;
62633;SDS011;48704;50.534;6.442;2022-07-15T05:43:31;16.52;;;8.77;;
62633;SDS011;48704;50.534;6.442;2022-07-15T05:45:56;15.30;;;7.60;;
62633;SDS011;48704;50.534;6.442;2022-07-15T05:48:22;15.70;;;7.82;;
62633;SDS011;48704;50.534;6.442;2022-07-15T05:50:48;12.80;;;7.90;;
62633;SDS011;48704;50.534;6.442;2022-07-15T05:53:14;14.23;;;7.60;;
62633;SDS011;48704;50.534;6.442;2022-07-15T05:55:40;11.35;;;6.70;;
62633;SDS011;48704;50.534;6.442;2022-07-15T05:58:06;16.17;;;6.90;;
62633;SDS011;48704;50.534;6.442;2022-07-15T06:00:33;11.93;;;5.90;;
62633;SDS011;48704;50.534;6.442;2022-07-15T06:02:59;10.20;;;5.50;;
62633;SDS011;48704;50.534;6.442;2022-07-15T06:05:25;12.75;;;5.75;;
62633;SDS011;48704;50.534;6.442;2022-07-15T06:07:51;14.07;;;6.75;;
62633;SDS011;48704;50.534;6.442;2022-07-15T06:10:17;16.50;;;6.38;;
62633;SDS011;48704;50.534;6.442;2022-07-15T06:12:42;12.23;;;5.40;;
62633;SDS011;48704;50.534;6.442;2022-07-15T06:15:08;11.20;;;5.32;;
62633;SDS011;48704;50.534;6.442;2022-07-15T06:17:34;9.48;;;5.20;;
62633;SDS011;48704;50.534;6.442;2022-07-15T06:19:59;10.27;;;5.95;;
62633;SDS011;48704;50.534;6.442;2022-07-15T06:22:25;11.52;;;5.30;;
62633;SDS011;48704;50.534;6.442;2022-07-15T06:24:51;10.98;;;6.22;;
62633;SDS011;48704;50.534;6.442;2022-07-15T06:27:17;11.43;;;5.53;;
62633;SDS011;48704;50.534;6.442;2022-07-15T06:29:43;12.90;;;5.15;;
62633;SDS011;48704;50.534;6.442;2022-07-15T06:32:08;13.30;;;5.68;;
62633;SDS011;48704;50.534;6.442;2022-07-15T06:34:37;8.98;;;5.20;;
62633;SDS011;48704;50.534;6.442;2022-07-15T06:37:02;12.10;;;4.80;;
62633;SDS011;48704;50.534;6.442;2022-07-15T06:39:30;9.40;;;4.97;;
62633;SDS011;48704;50.534;6.442;2022-07-15T06:41:56;12.18;;;5.10;;
62633;SDS011;48704;50.534;6.442;2022-07-15T06:44:22;8.13;;;4.55;;
62633;SDS011;48704;50.534;6.442;2022-07-15T06:46:47;10.27;;;6.47;;
62633;SDS011;48704;50.534;6.442;2022-07-15T06:49:13;11.50;;;5.18;;
62633;SDS011;48704;50.534;6.442;2022-07-15T06:51:39;11.57;;;4.60;;
62633;SDS011;48704;50.534;6.442;2022-07-15T06:54:05;11.20;;;4.30;;
62633;SDS011;48704;50.534;6.442;2022-07-15T06:56:32;7.97;;;4.47;;
62633;SDS011;48704;50.534;6.442;2022-07-15T06:58:58;12.27;;;3.60;;
62633;SDS011;48704;50.534;6.442;2022-07-15T07:01:24;11.15;;;3.72;;
62633;SDS011;48704;50.534;6.442;2022-07-15T07:03:50;9.00;;;3.63;;
62633;SDS011;48704;50.534;6.442;2022-07-15T07:06:15;9.13;;;3.63;;
62633;SDS011;48704;50.534;6.442;2022-07-15T07:08:41;8.40;;;3.33;;
62633;SDS011;48704;50.534;6.442;2022-07-15T07:11:07;6.85;;;2.78;;
62633;SDS011;48704;50.534;6.442;2022-07-15T07:13:32;5.97;;;2.58;;
62633;SDS011;48704;50.534;6.442;2022-07-15T07:15:58;6.38;;;2.50;;
62633;SDS011;48704;50.534;6.442;2022-07-15T07:18:24;6.60;;;2.38;;
62633;SDS011;48704;50.534;6.442;2022-07-15T07:20:50;5.45;;;2.67;;
62633;SDS011;48704;50.534;6.442;2022-07-15T07:23:15;6.55;;;2.72;;
62633;SDS011;48704;50.534;6.442;2022-07-15T07:25:41;7.28;;;2.67;;
62633;SDS011;48704;50.534;6.442;2022-07-15T07:28:07;5.70;;;2.97;;
62633;SDS011;48704;50.534;6.442;2022-07-15T07:30:33;5.03;;;2.55;;
62633;SDS011;48704;50.534;6.442;2022-07-15T07:32:59;5.72;;;2.22;;
62633;SDS011;48704;50.534;6.442;2022-07-15T07:35:25;5.63;;;2.55;;
62633;SDS011;48704;50.534;6.442;2022-07-15T07:37:51;4.22;;;1.98;;
62633;SDS011;48704;50.534;6.442;2022-07-15T07:40:16;6.05;;;2.20;;
62633;SDS011;48704;50.534;6.442;2022-07-15T07:42:43;3.67;;;2.03;;
62633;SDS011;48704;50.534;6.442;2022-07-15T07:45:09;4.20;;;1.67;;
62633;SDS011;48704;50.534;6.442;2022-07-15T07:47:36;6.15;;;2.50;;
62633;SDS011;48704;50.534;6.442;2022-07-15T07:50:05;5.70;;;1.70;;
62633;SDS011;48704;50.534;6.442;2022-07-15T07:52:32;4.72;;;1.95;;
62633;SDS011;48704;50.534;6.442;2022-07-15T07:54:57;4.72;;;2.10;;
62633;SDS011;48704;50.534;6.442;2022-07-15T07:57:23;4.35;;;1.60;;
62633;SDS011;48704;50.534;6.442;2022-07-15T07:59:48;6.72;;;2.00;;
62633;SDS011;48704;50.534;6.442;2022-07-15T08:02:14;5.97;;;2.17;;
62633;SDS011;48704;50.534;6.442;2022-07-15T08:04:40;8.45;;;2.08;;
62633;SDS011;48704;50.534;6.442;2022-07-15T08:07:06;5.07;;;2.00;;
62633;SDS011;48704;50.534;6.442;2022-07-15T08:09:32;6.55;;;2.03;;
62633;SDS011;48704;50.534;6.442;2022-07-15T08:11:58;7.55;;;2.40;;
62633;SDS011;48704;50.534;6.442;2022-07-15T08:14:23;7.88;;;2.25;;
62633;SDS011;48704;50.534;6.442;2022-07-15T08:16:49;6.70;;;2.58;;
62633;SDS011;48704;50.534;6.442;2022-07-15T08:19:15;7.60;;;2.45;;
62633;SDS011;48704;50.534;6.442;2022-07-15T08:21:42;3.75;;;1.80;;
62633;SDS011;48704;50.534;6.442;2022-07-15T08:24:09;4.45;;;2.10;;
62633;SDS011;48704;50.534;6.442;2022-07-15T08:26:36;6.18;;;2.00;;
62633;SDS011;48704;50.534;6.442;2022-07-15T08:29:02;5.47;;;1.80;;
62633;SDS011;48704;50.534;6.442;2022-07-15T08:31:29;3.58;;;1.63;;
62633;SDS011;48704;50.534;6.442;2022-07-15T08:33:54;4.70;;;2.65;;
62633;SDS011;48704;50.534;6.442;2022-07-15T08:36:20;8.73;;;2.25;;
62633;SDS011;48704;50.534;6.442;2022-07-15T08:38:45;3.55;;;2.00;;
62633;SDS011;48704;50.534;6.442;2022-07-15T08:41:14;4.65;;;1.58;;
62633;SDS011;48704;50.534;6.442;2022-07-15T08:43:40;4.65;;;2.08;;
62633;SDS011;48704;50.534;6.442;2022-07-15T08:46:07;5.15;;;1.60;;
62633;SDS011;48704;50.534;6.442;2022-07-15T08:48:35;5.55;;;1.95;;
62633;SDS011;48704;50.534;6.442;2022-07-15T08:51:03;5.20;;;1.77;;
62633;SDS011;48704;50.534;6.442;2022-07-15T08:53:32;4.15;;;1.60;;
62633;SDS011;48704;50.534;6.442;2022-07-15T08:55:59;3.80;;;2.03;;
62633;SDS011;48704;50.534;6.442;2022-07-15T08:58:25;4.25;;;1.52;;
62633;SDS011;48704;50.534;6.442;2022-07-15T09:00:51;7.03;;;1.83;;
62633;SDS011;48704;50.534;6.442;2022-07-15T09:03:17;6.03;;;1.73;;
62633;SDS011;48704;50.534;6.442;2022-07-15T09:05:42;4.22;;;1.63;;
62633;SDS011;48704;50.534;6.442;2022-07-15T09:10:55;4.70;;;1.60;;
62633;SDS011;48704;50.534;6.442;2022-07-15T09:13:30;4.47;;;1.85;;
62633;SDS011;48704;50.534;6.442;2022-07-15T09:15:58;2.45;;;1.30;;
62633;SDS011;48704;50.534;6.442;2022-07-15T09:18:30;3.53;;;1.27;;
62633;SDS011;48704;50.534;6.442;2022-07-15T09:20:58;4.38;;;1.40;;
62633;SDS011;48704;50.534;6.442;2022-07-15T09:23:25;4.53;;;1.48;;
62633;SDS011;48704;50.534;6.442;2022-07-15T09:25:59;3.05;;;1.42;;
62633;SDS011;48704;50.534;6.442;2022-07-15T09:28:44;4.00;;;1.20;;
62633;SDS011;48704;50.534;6.442;2022-07-15T09:31:10;5.35;;;1.40;;
62633;SDS011;48704;50.534;6.442;2022-07-15T09:33:58;2.47;;;1.27;;
62633;SDS011;48704;50.534;6.442;2022-07-15T09:36:28;3.67;;;1.52;;
62633;SDS011;48704;50.534;6.442;2022-07-15T09:38:57;3.03;;;1.40;;
62633;SDS011;48704;50.534;6.442;2022-07-15T09:41:38;3.40;;;1.20;;
62633;SDS011;48704;50.534;6.442;2022-07-15T09:44:15;4.72;;;1.55;;
62633;SDS011;48704;50.534;6.442;2022-07-15T09:46:59;2.35;;;1.27;;
62633;SDS011;48704;50.534;6.442;2022-07-15T09:51:54;3.35;;;1.25;;
62633;SDS011;48704;50.534;6.442;2022-07-15T09:54:22;4.13;;;1.50;;
62633;SDS011;48704;50.534;6.442;2022-07-15T09:56:59;3.75;;;1.20;;
62633;SDS011;48704;50.534;6.442;2022-07-15T09:59:27;6.28;;;1.60;;
62633;SDS011;48704;50.534;6.442;2022-07-15T10:01:54;2.25;;;1.10;;
62633;SDS011;48704;50.534;6.442;2022-07-15T10:04:21;3.75;;;1.23;;
62633;SDS011;48704;50.534;6.442;2022-07-15T10:06:49;4.05;;;1.30;;
62633;SDS011;48704;50.534;6.442;2022-07-15T10:09:19;3.47;;;1.25;;
62633;SDS011;48704;50.534;6.442;2022-07-15T10:11:48;3.92;;;1.45;;
62633;SDS011;48704;50.534;6.442;2022-07-15T10:17:26;4.97;;;1.75;;
62633;SDS011;48704;50.534;6.442;2022-07-15T10:29:26;4.78;;;1.88;;
62633;SDS011;48704;50.534;6.442;2022-07-15T10:31:59;2.05;;;1.10;;
62633;SDS011;48704;50.534;6.442;2022-07-15T10:34:29;3.63;;;1.35;;
62633;SDS011;48704;50.534;6.442;2022-07-15T10:36:58;3.15;;;1.20;;
62633;SDS011;48704;50.534;6.442;2022-07-15T10:42:15;4.05;;;0.90;;
62633;SDS011;48704;50.534;6.442;2022-07-15T10:45:14;4.68;;;1.20;;
62633;SDS011;48704;50.534;6.442;2022-07-15T10:47:34;2.38;;;0.90;;
62633;SDS011;48704;50.534;6.442;2022-07-15T10:50:00;3.05;;;0.80;;
62633;SDS011;48704;50.534;6.442;2022-07-15T10:53:23;1.58;;;0.90;;
62633;SDS011;48704;50.534;6.442;2022-07-15T10:55:50;1.10;;;0.60;;
62633;SDS011;48704;50.534;6.442;2022-07-15T10:58:17;3.63;;;1.00;;
62633;SDS011;48704;50.534;6.442;2022-07-15T11:00:43;3.58;;;0.98;;
62633;SDS011;48704;50.534;6.442;2022-07-15T11:03:10;2.58;;;0.80;;
62633;SDS011;48704;50.534;6.442;2022-07-15T11:13:39;2.20;;;1.00;;
62633;SDS011;48704;50.534;6.442;2022-07-15T11:16:09;1.73;;;0.73;;
62633;SDS011;48704;50.534;6.442;2022-07-15T11:18:46;4.53;;;1.13;;
62633;SDS011;48704;50.534;6.442;2022-07-15T11:21:16;6.57;;;1.83;;
62633;SDS011;48704;50.534;6.442;2022-07-15T11:23:46;2.67;;;0.88;;
62633;SDS011;48704;50.534;6.442;2022-07-15T11:26:13;2.30;;;0.80;;
62633;SDS011;48704;50.534;6.442;2022-07-15T11:28:47;3.22;;;1.02;;
62633;SDS011;48704;50.534;6.442;2022-07-15T11:31:23;3.03;;;0.95;;
62633;SDS011;48704;50.534;6.442;2022-07-15T11:33:52;2.42;;;1.05;;
62633;SDS011;48704;50.534;6.442;2022-07-15T11:36:21;1.67;;;0.80;;
62633;SDS011;48704;50.534;6.442;2022-07-15T11:38:50;3.97;;;0.98;;
62633;SDS011;48704;50.534;6.442;2022-07-15T11:41:17;4.60;;;1.10;;
62633;SDS011;48704;50.534;6.442;2022-07-15T11:44:08;2.58;;;1.10;;
62633;SDS011;48704;50.534;6.442;2022-07-15T11:46:55;4.70;;;1.00;;
62633;SDS011;48704;50.534;6.442;2022-07-15T11:49:32;2.63;;;1.10;;
62633;SDS011;48704;50.534;6.442;2022-07-15T11:51:59;2.33;;;0.68;;
62633;SDS011;48704;50.534;6.442;2022-07-15T11:54:26;4.25;;;0.95;;
62633;SDS011;48704;50.534;6.442;2022-07-15T11:56:53;1.90;;;1.02;;
62633;SDS011;48704;50.534;6.442;2022-07-15T11:59:19;2.92;;;0.80;;
62633;SDS011;48704;50.534;6.442;2022-07-15T12:01:45;2.60;;;0.93;;
62633;SDS011;48704;50.534;6.442;2022-07-15T12:04:10;2.00;;;0.85;;
62633;SDS011;48704;50.534;6.442;2022-07-15T12:06:36;3.85;;;0.80;;
62633;SDS011;48704;50.534;6.442;2022-07-15T12:09:03;5.22;;;0.80;;
62633;SDS011;48704;50.534;6.442;2022-07-15T12:11:37;2.35;;;0.70;;
62633;SDS011;48704;50.534;6.442;2022-07-15T12:14:05;2.38;;;0.70;;
62633;SDS011;48704;50.534;6.442;2022-07-15T12:16:45;3.25;;;0.80;;
62633;SDS011;48704;50.534;6.442;2022-07-15T12:19:13;3.08;;;0.90;;
62633;SDS011;48704;50.534;6.442;2022-07-15T12:21:45;2.33;;;0.80;;
62633;SDS011;48704;50.534;6.442;2022-07-15T12:24:14;3.63;;;0.90;;
62633;SDS011;48704;50.534;6.442;2022-07-15T12:29:16;2.78;;;0.80;;
62633;SDS011;48704;50.534;6.442;2022-07-15T12:31:48;3.92;;;0.80;;
62633;SDS011;48704;50.534;6.442;2022-07-15T12:37:46;2.17;;;1.02;;
62633;SDS011;48704;50.534;6.442;2022-07-15T12:40:20;2.95;;;0.90;;
62633;SDS011;48704;50.534;6.442;2022-07-15T12:42:48;2.47;;;0.60;;
62633;SDS011;48704;50.534;6.442;2022-07-15T12:45:21;3.10;;;0.95;;
62633;SDS011;48704;50.534;6.442;2022-07-15T12:53:14;2.42;;;0.65;;
62633;SDS011;48704;50.534;6.442;2022-07-15T12:55:41;2.40;;;0.90;;
62633;SDS011;48704;50.534;6.442;2022-07-15T12:58:09;2.90;;;0.80;;
62633;SDS011;48704;50.534;6.442;2022-07-15T13:00:37;3.30;;;0.80;;
62633;SDS011;48704;50.534;6.442;2022-07-15T13:03:10;2.80;;;0.82;;
62633;SDS011;48704;50.534;6.442;2022-07-15T13:05:40;4.55;;;0.95;;
62633;SDS011;48704;50.534;6.442;2022-07-15T13:08:19;2.75;;;0.60;;
62633;SDS011;48704;50.534;6.442;2022-07-15T13:10:47;3.85;;;0.77;;
62633;SDS011;48704;50.534;6.442;2022-07-15T13:13:15;2.88;;;0.70;;
62633;SDS011;48704;50.534;6.442;2022-07-15T13:15:43;1.50;;;0.60;;
62633;SDS011;48704;50.534;6.442;2022-07-15T13:18:13;3.13;;;0.70;;
62633;SDS011;48704;50.534;6.442;2022-07-15T13:20:40;2.95;;;0.70;;
62633;SDS011;48704;50.534;6.442;2022-07-15T13:23:09;1.80;;;0.80;;
62633;SDS011;48704;50.534;6.442;2022-07-15T13:25:35;4.05;;;0.60;;
62633;SDS011;48704;50.534;6.442;2022-07-15T13:28:02;1.75;;;0.80;;
62633;SDS011;48704;50.534;6.442;2022-07-15T13:30:28;3.78;;;1.42;;
62633;SDS011;48704;50.534;6.442;2022-07-15T13:32:54;2.83;;;1.40;;
62633;SDS011;48704;50.534;6.442;2022-07-15T13:35:20;2.55;;;0.70;;
62633;SDS011;48704;50.534;6.442;2022-07-15T13:37:46;2.65;;;0.50;;
62633;SDS011;48704;50.534;6.442;2022-07-15T13:40:12;0.85;;;0.45;;
62633;SDS011;48704;50.534;6.442;2022-07-15T13:42:39;2.22;;;0.80;;
62633;SDS011;48704;50.534;6.442;2022-07-15T13:45:06;2.42;;;0.80;;
62633;SDS011;48704;50.534;6.442;2022-07-15T13:47:33;2.58;;;0.88;;
62633;SDS011;48704;50.534;6.442;2022-07-15T13:49:58;4.25;;;0.98;;
62633;SDS011;48704;50.534;6.442;2022-07-15T13:52:46;1.02;;;0.60;;
62633;SDS011;48704;50.534;6.442;2022-07-15T13:55:13;3.75;;;0.95;;
62633;SDS011;48704;50.534;6.442;2022-07-15T13:57:41;3.28;;;0.60;;
62633;SDS011;48704;50.534;6.442;2022-07-15T14:00:07;1.70;;;0.60;;
62633;SDS011;48704;50.534;6.442;2022-07-15T14:02:37;3.97;;;0.85;;
62633;SDS011;48704;50.534;6.442;2022-07-15T14:05:03;2.92;;;0.75;;
62633;SDS011;48704;50.534;6.442;2022-07-15T14:07:30;4.72;;;0.60;;
62633;SDS011;48704;50.534;6.442;2022-07-15T14:09:56;5.13;;;1.92;;
62633;SDS011;48704;50.534;6.442;2022-07-15T14:12:21;1.48;;;0.50;;
62633;SDS011;48704;50.534;6.442;2022-07-15T14:14:47;3.38;;;0.80;;
62633;SDS011;48704;50.534;6.442;2022-07-15T14:17:12;3.00;;;0.80;;
62633;SDS011;48704;50.534;6.442;2022-07-15T14:19:38;2.42;;;0.70;;
62633;SDS011;48704;50.534;6.442;2022-07-15T14:22:04;2.42;;;0.60;;
62633;SDS011;48704;50.534;6.442;2022-07-15T14:24:30;4.15;;;0.77;;
62633;SDS011;48704;50.534;6.442;2022-07-15T14:26:55;2.38;;;0.98;;
62633;SDS011;48704;50.534;6.442;2022-07-15T14:29:21;4.00;;;0.90;;
62633;SDS011;48704;50.534;6.442;2022-07-15T14:31:46;3.35;;;0.93;;
62633;SDS011;48704;50.534;6.442;2022-07-15T14:34:12;2.95;;;0.90;;
62633;SDS011;48704;50.534;6.442;2022-07-15T14:36:37;5.07;;;0.80;;
62633;SDS011;48704;50.534;6.442;2022-07-15T14:39:03;2.97;;;0.80;;
62633;SDS011;48704;50.534;6.442;2022-07-15T14:41:29;3.40;;;0.90;;
62633;SDS011;48704;50.534;6.442;2022-07-15T14:43:55;3.28;;;0.80;;
62633;SDS011;48704;50.534;6.442;2022-07-15T14:46:21;2.90;;;1.10;;
62633;SDS011;48704;50.534;6.442;2022-07-15T14:48:46;1.77;;;0.60;;
62633;SDS011;48704;50.534;6.442;2022-07-15T14:51:13;2.95;;;0.70;;
62633;SDS011;48704;50.534;6.442;2022-07-15T14:53:39;4.30;;;1.25;;
62633;SDS011;48704;50.534;6.442;2022-07-15T14:56:04;1.55;;;0.60;;
62633;SDS011;48704;50.534;6.442;2022-07-15T14:58:30;3.58;;;0.77;;
62633;SDS011;48704;50.534;6.442;2022-07-15T15:00:56;1.55;;;0.57;;
62633;SDS011;48704;50.534;6.442;2022-07-15T15:03:21;3.17;;;0.73;;
62633;SDS011;48704;50.534;6.442;2022-07-15T15:05:47;4.20;;;0.88;;
62633;SDS011;48704;50.534;6.442;2022-07-15T15:08:13;3.00;;;1.00;;
62633;SDS011;48704;50.534;6.442;2022-07-15T15:10:39;3.63;;;0.90;;
62633;SDS011;48704;50.534;6.442;2022-07-15T15:13:05;1.77;;;0.50;;
62633;SDS011;48704;50.534;6.442;2022-07-15T15:15:30;2.50;;;0.70;;
62633;SDS011;48704;50.534;6.442;2022-07-15T15:17:56;4.60;;;1.35;;
62633;SDS011;48704;50.534;6.442;2022-07-15T15:20:22;1.67;;;0.77;;
62633;SDS011;48704;50.534;6.442;2022-07-15T15:22:47;2.95;;;0.95;;
62633;SDS011;48704;50.534;6.442;2022-07-15T15:25:13;3.15;;;0.80;;